sensor_id;sensor_type;location;lat;lon;timestamp;P1;durP1;ratioP1;P2;durP2;ratioP2
60100;SDS011;45978;53.646;55.930;2023-01-19T00:00:29;13.77;;;4.93;;
60100;SDS011;45978;53.646;55.930;2023-01-19T00:01:30;6.60;;;3.90;;
60100;SDS011;45978;53.646;55.930;2023-01-19T00:02:32;12.13;;;4.22;;
60100;SDS011;45978;53.646;55.930;2023-01-19T00:03:33;7.88;;;3.58;;
60100;SDS011;45978;53.646;55.930;2023-01-19T00:04:36;6.63;;;4.10;;
60100;SDS011;45978;53.646;55.930;2023-01-19T00:05:41;8.60;;;3.90;;
60100;SDS011;45978;53.646;55.930;2023-01-19T00:06:46;9.80;;;4.25;;
60100;SDS011;45978;53.646;55.930;2023-01-19T00:07:47;9.10;;;4.18;;
60100;SDS011;45978;53.646;55.930;2023-01-19T00:08:50;9.85;;;4.35;;
60100;SDS011;45978;53.646;55.930;2023-01-19T00:09:51;12.43;;;5.50;;
60100;SDS011;45978;53.646;55.930;2023-01-19T00:10:53;10.52;;;4.70;;
60100;SDS011;45978;53.646;55.930;2023-01-19T00:11:54;11.98;;;4.30;;
60100;SDS011;45978;53.646;55.930;2023-01-19T00:12:56;7.93;;;4.25;;
60100;SDS011;45978;53.646;55.930;2023-01-19T00:13:57;7.93;;;3.88;;
60100;SDS011;45978;53.646;55.930;2023-01-19T00:14:59;9.35;;;4.05;;
60100;SDS011;45978;53.646;55.930;2023-01-19T00:16:00;7.40;;;4.07;;
60100;SDS011;45978;53.646;55.930;2023-01-19T00:17:02;10.13;;;4.55;;
60100;SDS011;45978;53.646;55.930;2023-01-19T00:18:03;9.93;;;4.47;;
60100;SDS011;45978;53.646;55.930;2023-01-19T00:19:06;9.23;;;4.53;;
60100;SDS011;45978;53.646;55.930;2023-01-19T00:20:11;8.00;;;4.68;;
60100;SDS011;45978;53.646;55.930;2023-01-19T00:21:13;9.05;;;4.03;;
60100;SDS011;45978;53.646;55.930;2023-01-19T00:22:14;9.43;;;4.82;;
60100;SDS011;45978;53.646;55.930;2023-01-19T00:23:16;7.40;;;4.03;;
60100;SDS011;45978;53.646;55.930;2023-01-19T00:24:19;7.53;;;3.95;;
60100;SDS011;45978;53.646;55.930;2023-01-19T00:25:24;16.63;;;5.43;;
60100;SDS011;45978;53.646;55.930;2023-01-19T00:26:25;8.85;;;4.90;;
60100;SDS011;45978;53.646;55.930;2023-01-19T00:27:26;8.88;;;4.10;;
60100;SDS011;45978;53.646;55.930;2023-01-19T00:28:31;7.93;;;4.30;;
60100;SDS011;45978;53.646;55.930;2023-01-19T00:29:35;14.35;;;4.63;;
60100;SDS011;45978;53.646;55.930;2023-01-19T00:30:38;10.70;;;4.25;;
60100;SDS011;45978;53.646;55.930;2023-01-19T00:31:41;12.85;;;5.25;;
60100;SDS011;45978;53.646;55.930;2023-01-19T00:32:42;9.20;;;4.10;;
60100;SDS011;45978;53.646;55.930;2023-01-19T00:33:44;11.10;;;4.40;;
60100;SDS011;45978;53.646;55.930;2023-01-19T00:34:48;6.93;;;4.25;;
60100;SDS011;45978;53.646;55.930;2023-01-19T00:35:52;11.93;;;4.75;;
60100;SDS011;45978;53.646;55.930;2023-01-19T00:36:56;11.20;;;5.20;;
60100;SDS011;45978;53.646;55.930;2023-01-19T00:38:01;8.55;;;4.72;;
60100;SDS011;45978;53.646;55.930;2023-01-19T00:39:03;8.13;;;4.43;;
60100;SDS011;45978;53.646;55.930;2023-01-19T00:40:04;8.07;;;4.55;;
60100;SDS011;45978;53.646;55.930;2023-01-19T00:41:08;9.82;;;4.38;;
60100;SDS011;45978;53.646;55.930;2023-01-19T00:42:14;10.02;;;4.43;;
60100;SDS011;45978;53.646;55.930;2023-01-19T00:43:35;8.25;;;4.70;;
60100;SDS011;45978;53.646;55.930;2023-01-19T00:44:36;8.20;;;4.43;;
60100;SDS011;45978;53.646;55.930;2023-01-19T00:45:38;13.15;;;4.35;;
60100;SDS011;45978;53.646;55.930;2023-01-19T00:46:39;12.15;;;4.80;;
60100;SDS011;45978;53.646;55.930;2023-01-19T00:47:42;12.88;;;5.40;;
60100;SDS011;45978;53.646;55.930;2023-01-19T00:48:45;9.98;;;5.32;;
60100;SDS011;45978;53.646;55.930;2023-01-19T00:49:53;12.38;;;4.88;;
60100;SDS011;45978;53.646;55.930;2023-01-19T00:50:56;8.52;;;4.82;;
60100;SDS011;45978;53.646;55.930;2023-01-19T00:51:59;10.43;;;5.40;;
60100;SDS011;45978;53.646;55.930;2023-01-19T00:53:01;8.50;;;4.50;;
60100;SDS011;45978;53.646;55.930;2023-01-19T00:54:02;7.95;;;4.53;;
60100;SDS011;45978;53.646;55.930;2023-01-19T00:55:06;8.80;;;4.15;;
60100;SDS011;45978;53.646;55.930;2023-01-19T00:56:08;13.65;;;5.00;;
60100;SDS011;45978;53.646;55.930;2023-01-19T00:57:09;18.55;;;5.60;;
60100;SDS011;45978;53.646;55.930;2023-01-19T00:58:10;12.15;;;4.95;;
60100;SDS011;45978;53.646;55.930;2023-01-19T00:59:14;7.28;;;4.15;;
60100;SDS011;45978;53.646;55.930;2023-01-19T01:00:16;8.57;;;4.53;;
60100;SDS011;45978;53.646;55.930;2023-01-19T01:01:19;12.50;;;4.97;;
60100;SDS011;45978;53.646;55.930;2023-01-19T01:02:20;7.85;;;5.00;;
60100;SDS011;45978;53.646;55.930;2023-01-19T01:03:22;15.40;;;6.07;;
60100;SDS011;45978;53.646;55.930;2023-01-19T01:04:27;13.02;;;5.30;;
60100;SDS011;45978;53.646;55.930;2023-01-19T01:05:32;10.93;;;5.20;;
60100;SDS011;45978;53.646;55.930;2023-01-19T01:06:33;10.73;;;4.95;;
60100;SDS011;45978;53.646;55.930;2023-01-19T01:07:35;8.73;;;5.25;;
60100;SDS011;45978;53.646;55.930;2023-01-19T01:08:47;9.43;;;5.30;;
60100;SDS011;45978;53.646;55.930;2023-01-19T01:09:49;11.80;;;5.97;;
60100;SDS011;45978;53.646;55.930;2023-01-19T01:10:51;12.52;;;5.97;;
60100;SDS011;45978;53.646;55.930;2023-01-19T01:11:54;7.15;;;4.50;;
60100;SDS011;45978;53.646;55.930;2023-01-19T01:12:56;11.13;;;5.30;;
60100;SDS011;45978;53.646;55.930;2023-01-19T01:13:57;16.10;;;5.57;;
60100;SDS011;45978;53.646;55.930;2023-01-19T01:14:59;12.40;;;5.22;;
60100;SDS011;45978;53.646;55.930;2023-01-19T01:16:04;11.98;;;5.80;;
60100;SDS011;45978;53.646;55.930;2023-01-19T01:17:07;10.07;;;5.68;;
60100;SDS011;45978;53.646;55.930;2023-01-19T01:18:11;11.55;;;5.80;;
60100;SDS011;45978;53.646;55.930;2023-01-19T01:19:13;8.70;;;5.40;;
60100;SDS011;45978;53.646;55.930;2023-01-19T01:20:18;11.13;;;5.53;;
60100;SDS011;45978;53.646;55.930;2023-01-19T01:21:22;16.92;;;6.38;;
60100;SDS011;45978;53.646;55.930;2023-01-19T01:22:24;11.98;;;5.68;;
60100;SDS011;45978;53.646;55.930;2023-01-19T01:23:25;14.25;;;5.32;;
60100;SDS011;45978;53.646;55.930;2023-01-19T01:24:26;12.70;;;6.22;;
60100;SDS011;45978;53.646;55.930;2023-01-19T01:25:28;9.20;;;5.85;;
60100;SDS011;45978;53.646;55.930;2023-01-19T01:26:37;30.92;;;14.63;;
60100;SDS011;45978;53.646;55.930;2023-01-19T01:27:38;13.77;;;7.00;;
60100;SDS011;45978;53.646;55.930;2023-01-19T01:28:39;17.95;;;7.70;;
60100;SDS011;45978;53.646;55.930;2023-01-19T01:29:41;15.45;;;7.07;;
60100;SDS011;45978;53.646;55.930;2023-01-19T01:30:47;14.00;;;6.03;;
60100;SDS011;45978;53.646;55.930;2023-01-19T01:31:52;15.95;;;8.85;;
60100;SDS011;45978;53.646;55.930;2023-01-19T01:32:54;15.10;;;7.47;;
60100;SDS011;45978;53.646;55.930;2023-01-19T01:33:55;11.82;;;6.50;;
60100;SDS011;45978;53.646;55.930;2023-01-19T01:34:57;14.95;;;6.18;;
60100;SDS011;45978;53.646;55.930;2023-01-19T01:35:58;15.57;;;7.43;;
60100;SDS011;45978;53.646;55.930;2023-01-19T01:37:01;18.15;;;7.95;;
60100;SDS011;45978;53.646;55.930;2023-01-19T01:38:03;17.25;;;8.90;;
60100;SDS011;45978;53.646;55.930;2023-01-19T01:39:05;16.40;;;6.78;;
60100;SDS011;45978;53.646;55.930;2023-01-19T01:40:09;19.52;;;8.80;;
60100;SDS011;45978;53.646;55.930;2023-01-19T01:41:13;19.52;;;7.80;;
60100;SDS011;45978;53.646;55.930;2023-01-19T01:42:18;12.63;;;6.75;;
60100;SDS011;45978;53.646;55.930;2023-01-19T01:43:20;12.57;;;6.75;;
60100;SDS011;45978;53.646;55.930;2023-01-19T01:45:51;14.38;;;6.05;;
60100;SDS011;45978;53.646;55.930;2023-01-19T01:46:54;12.98;;;5.82;;
60100;SDS011;45978;53.646;55.930;2023-01-19T01:49:06;15.93;;;6.60;;
60100;SDS011;45978;53.646;55.930;2023-01-19T01:50:25;10.48;;;6.65;;
60100;SDS011;45978;53.646;55.930;2023-01-19T01:51:33;14.23;;;6.38;;
60100;SDS011;45978;53.646;55.930;2023-01-19T01:52:45;13.30;;;6.55;;
60100;SDS011;45978;53.646;55.930;2023-01-19T01:54:04;11.63;;;5.95;;
60100;SDS011;45978;53.646;55.930;2023-01-19T01:55:09;12.30;;;6.47;;
60100;SDS011;45978;53.646;55.930;2023-01-19T01:56:13;13.60;;;5.82;;
60100;SDS011;45978;53.646;55.930;2023-01-19T01:57:20;9.65;;;5.35;;
60100;SDS011;45978;53.646;55.930;2023-01-19T01:58:22;12.02;;;6.13;;
60100;SDS011;45978;53.646;55.930;2023-01-19T01:59:25;17.23;;;6.13;;
60100;SDS011;45978;53.646;55.930;2023-01-19T02:00:39;16.75;;;6.00;;
60100;SDS011;45978;53.646;55.930;2023-01-19T02:02:01;14.95;;;5.80;;
60100;SDS011;45978;53.646;55.930;2023-01-19T02:03:25;11.32;;;5.93;;
60100;SDS011;45978;53.646;55.930;2023-01-19T02:04:28;15.05;;;5.75;;
60100;SDS011;45978;53.646;55.930;2023-01-19T02:05:32;14.07;;;6.18;;
60100;SDS011;45978;53.646;55.930;2023-01-19T02:06:36;26.65;;;9.55;;
60100;SDS011;45978;53.646;55.930;2023-01-19T02:08:02;10.93;;;5.88;;
60100;SDS011;45978;53.646;55.930;2023-01-19T02:09:32;17.40;;;6.95;;
60100;SDS011;45978;53.646;55.930;2023-01-19T02:10:58;12.15;;;5.82;;
60100;SDS011;45978;53.646;55.930;2023-01-19T02:12:22;16.35;;;6.10;;
60100;SDS011;45978;53.646;55.930;2023-01-19T02:13:55;12.70;;;5.70;;
60100;SDS011;45978;53.646;55.930;2023-01-19T02:14:56;12.80;;;5.97;;
60100;SDS011;45978;53.646;55.930;2023-01-19T02:15:58;10.77;;;5.05;;
60100;SDS011;45978;53.646;55.930;2023-01-19T02:17:06;10.75;;;5.90;;
60100;SDS011;45978;53.646;55.930;2023-01-19T02:18:09;16.40;;;6.30;;
60100;SDS011;45978;53.646;55.930;2023-01-19T02:19:11;10.80;;;5.85;;
60100;SDS011;45978;53.646;55.930;2023-01-19T02:20:18;10.05;;;5.25;;
60100;SDS011;45978;53.646;55.930;2023-01-19T02:22:30;10.82;;;5.35;;
60100;SDS011;45978;53.646;55.930;2023-01-19T02:23:42;10.75;;;5.85;;
60100;SDS011;45978;53.646;55.930;2023-01-19T02:24:45;10.68;;;5.28;;
60100;SDS011;45978;53.646;55.930;2023-01-19T02:25:46;13.82;;;6.60;;
60100;SDS011;45978;53.646;55.930;2023-01-19T02:26:49;11.48;;;5.82;;
60100;SDS011;45978;53.646;55.930;2023-01-19T02:27:52;12.73;;;5.93;;
60100;SDS011;45978;53.646;55.930;2023-01-19T02:30:19;12.02;;;5.03;;
60100;SDS011;45978;53.646;55.930;2023-01-19T02:31:23;11.48;;;5.80;;
60100;SDS011;45978;53.646;55.930;2023-01-19T02:32:28;18.33;;;6.72;;
60100;SDS011;45978;53.646;55.930;2023-01-19T02:33:31;15.30;;;5.70;;
60100;SDS011;45978;53.646;55.930;2023-01-19T02:34:33;13.45;;;6.05;;
60100;SDS011;45978;53.646;55.930;2023-01-19T02:35:35;11.60;;;5.35;;
60100;SDS011;45978;53.646;55.930;2023-01-19T02:36:47;10.65;;;6.05;;
60100;SDS011;45978;53.646;55.930;2023-01-19T02:38:03;14.57;;;5.75;;
60100;SDS011;45978;53.646;55.930;2023-01-19T02:39:07;13.35;;;6.78;;
60100;SDS011;45978;53.646;55.930;2023-01-19T02:40:13;14.35;;;7.13;;
60100;SDS011;45978;53.646;55.930;2023-01-19T02:41:20;13.57;;;6.03;;
60100;SDS011;45978;53.646;55.930;2023-01-19T02:43:32;16.85;;;6.28;;
60100;SDS011;45978;53.646;55.930;2023-01-19T02:44:35;11.30;;;6.03;;
60100;SDS011;45978;53.646;55.930;2023-01-19T02:45:37;12.25;;;6.43;;
60100;SDS011;45978;53.646;55.930;2023-01-19T02:46:40;15.70;;;6.47;;
60100;SDS011;45978;53.646;55.930;2023-01-19T02:47:43;12.02;;;7.43;;
60100;SDS011;45978;53.646;55.930;2023-01-19T02:48:46;11.85;;;6.32;;
60100;SDS011;45978;53.646;55.930;2023-01-19T02:49:57;11.00;;;5.50;;
60100;SDS011;45978;53.646;55.930;2023-01-19T02:50:59;14.15;;;6.07;;
60100;SDS011;45978;53.646;55.930;2023-01-19T02:52:13;10.10;;;5.50;;
60100;SDS011;45978;53.646;55.930;2023-01-19T02:54:57;13.85;;;6.15;;
60100;SDS011;45978;53.646;55.930;2023-01-19T02:56:29;12.90;;;6.28;;
60100;SDS011;45978;53.646;55.930;2023-01-19T03:09:10;10.68;;;5.13;;
60100;SDS011;45978;53.646;55.930;2023-01-19T03:10:34;10.15;;;5.53;;
60100;SDS011;45978;53.646;55.930;2023-01-19T03:11:52;10.07;;;5.22;;
60100;SDS011;45978;53.646;55.930;2023-01-19T03:14:48;11.18;;;6.28;;
60100;SDS011;45978;53.646;55.930;2023-01-19T03:15:55;12.98;;;6.30;;
60100;SDS011;45978;53.646;55.930;2023-01-19T03:16:58;14.45;;;7.10;;
60100;SDS011;45978;53.646;55.930;2023-01-19T03:18:07;13.73;;;6.40;;
60100;SDS011;45978;53.646;55.930;2023-01-19T03:19:45;11.45;;;6.38;;
60100;SDS011;45978;53.646;55.930;2023-01-19T03:20:42;13.02;;;5.70;;
60100;SDS011;45978;53.646;55.930;2023-01-19T03:21:46;12.63;;;5.53;;
60100;SDS011;45978;53.646;55.930;2023-01-19T03:23:01;11.77;;;6.20;;
60100;SDS011;45978;53.646;55.930;2023-01-19T03:24:07;12.73;;;6.28;;
60100;SDS011;45978;53.646;55.930;2023-01-19T03:25:11;14.65;;;6.35;;
60100;SDS011;45978;53.646;55.930;2023-01-19T03:26:18;13.32;;;6.70;;
60100;SDS011;45978;53.646;55.930;2023-01-19T03:27:26;14.35;;;6.75;;
60100;SDS011;45978;53.646;55.930;2023-01-19T03:28:35;14.93;;;6.70;;
60100;SDS011;45978;53.646;55.930;2023-01-19T03:29:40;11.90;;;6.63;;
60100;SDS011;45978;53.646;55.930;2023-01-19T03:30:49;13.85;;;6.35;;
60100;SDS011;45978;53.646;55.930;2023-01-19T03:31:57;12.27;;;6.50;;
60100;SDS011;45978;53.646;55.930;2023-01-19T03:33:10;13.32;;;6.32;;
60100;SDS011;45978;53.646;55.930;2023-01-19T03:34:20;14.88;;;7.45;;
60100;SDS011;45978;53.646;55.930;2023-01-19T03:35:28;20.15;;;6.97;;
60100;SDS011;45978;53.646;55.930;2023-01-19T03:36:42;11.70;;;5.75;;
60100;SDS011;45978;53.646;55.930;2023-01-19T03:37:55;20.55;;;8.75;;
60100;SDS011;45978;53.646;55.930;2023-01-19T03:39:04;29.85;;;13.80;;
60100;SDS011;45978;53.646;55.930;2023-01-19T03:40:10;18.52;;;9.05;;
60100;SDS011;45978;53.646;55.930;2023-01-19T03:41:13;13.52;;;7.20;;
60100;SDS011;45978;53.646;55.930;2023-01-19T03:42:19;13.88;;;6.30;;
60100;SDS011;45978;53.646;55.930;2023-01-19T03:43:21;11.30;;;6.28;;
60100;SDS011;45978;53.646;55.930;2023-01-19T03:44:25;11.02;;;6.90;;
60100;SDS011;45978;53.646;55.930;2023-01-19T03:45:29;20.20;;;9.75;;
60100;SDS011;45978;53.646;55.930;2023-01-19T03:46:48;13.30;;;6.50;;
60100;SDS011;45978;53.646;55.930;2023-01-19T03:47:51;12.65;;;6.22;;
60100;SDS011;45978;53.646;55.930;2023-01-19T03:48:54;18.25;;;8.43;;
60100;SDS011;45978;53.646;55.930;2023-01-19T03:50:01;11.63;;;6.45;;
60100;SDS011;45978;53.646;55.930;2023-01-19T03:51:14;18.48;;;7.13;;
60100;SDS011;45978;53.646;55.930;2023-01-19T03:52:28;17.08;;;7.20;;
60100;SDS011;45978;53.646;55.930;2023-01-19T03:53:34;9.95;;;5.28;;
60100;SDS011;45978;53.646;55.930;2023-01-19T03:54:36;9.10;;;5.40;;
60100;SDS011;45978;53.646;55.930;2023-01-19T03:55:43;9.15;;;5.20;;
60100;SDS011;45978;53.646;55.930;2023-01-19T03:56:46;10.48;;;4.80;;
60100;SDS011;45978;53.646;55.930;2023-01-19T03:57:49;8.32;;;4.30;;
60100;SDS011;45978;53.646;55.930;2023-01-19T03:58:51;8.68;;;4.53;;
60100;SDS011;45978;53.646;55.930;2023-01-19T03:59:53;7.40;;;4.47;;
60100;SDS011;45978;53.646;55.930;2023-01-19T04:00:55;8.57;;;4.22;;
60100;SDS011;45978;53.646;55.930;2023-01-19T04:01:56;12.10;;;4.53;;
60100;SDS011;45978;53.646;55.930;2023-01-19T04:02:58;5.90;;;3.67;;
60100;SDS011;45978;53.646;55.930;2023-01-19T04:04:00;8.68;;;4.25;;
60100;SDS011;45978;53.646;55.930;2023-01-19T04:05:08;8.70;;;3.75;;
60100;SDS011;45978;53.646;55.930;2023-01-19T04:06:10;7.13;;;4.20;;
60100;SDS011;45978;53.646;55.930;2023-01-19T04:07:15;10.13;;;5.22;;
60100;SDS011;45978;53.646;55.930;2023-01-19T04:08:19;12.95;;;5.75;;
60100;SDS011;45978;53.646;55.930;2023-01-19T04:09:21;12.88;;;7.10;;
60100;SDS011;45978;53.646;55.930;2023-01-19T04:10:22;11.10;;;6.55;;
60100;SDS011;45978;53.646;55.930;2023-01-19T04:11:24;14.05;;;6.15;;
60100;SDS011;45978;53.646;55.930;2023-01-19T04:12:25;12.82;;;5.78;;
60100;SDS011;45978;53.646;55.930;2023-01-19T04:13:26;9.35;;;4.45;;
60100;SDS011;45978;53.646;55.930;2023-01-19T04:14:30;8.60;;;5.50;;
60100;SDS011;45978;53.646;55.930;2023-01-19T04:15:33;10.13;;;5.38;;
60100;SDS011;45978;53.646;55.930;2023-01-19T04:16:34;11.55;;;5.70;;
60100;SDS011;45978;53.646;55.930;2023-01-19T04:17:36;11.52;;;5.88;;
60100;SDS011;45978;53.646;55.930;2023-01-19T04:18:39;11.50;;;6.43;;
60100;SDS011;45978;53.646;55.930;2023-01-19T04:19:40;8.63;;;5.10;;
60100;SDS011;45978;53.646;55.930;2023-01-19T04:20:42;8.48;;;4.93;;
60100;SDS011;45978;53.646;55.930;2023-01-19T04:21:44;10.55;;;5.93;;
60100;SDS011;45978;53.646;55.930;2023-01-19T04:22:48;9.30;;;5.60;;
60100;SDS011;45978;53.646;55.930;2023-01-19T04:23:50;22.10;;;11.20;;
60100;SDS011;45978;53.646;55.930;2023-01-19T04:24:53;22.50;;;10.88;;
60100;SDS011;45978;53.646;55.930;2023-01-19T04:25:59;14.20;;;6.55;;
60100;SDS011;45978;53.646;55.930;2023-01-19T04:27:04;15.40;;;7.65;;
60100;SDS011;45978;53.646;55.930;2023-01-19T04:28:05;12.30;;;5.90;;
60100;SDS011;45978;53.646;55.930;2023-01-19T04:29:08;14.43;;;6.38;;
60100;SDS011;45978;53.646;55.930;2023-01-19T04:30:10;16.90;;;6.90;;
60100;SDS011;45978;53.646;55.930;2023-01-19T04:31:11;21.13;;;8.55;;
60100;SDS011;45978;53.646;55.930;2023-01-19T04:32:15;22.52;;;9.40;;
60100;SDS011;45978;53.646;55.930;2023-01-19T04:33:19;15.88;;;7.75;;
60100;SDS011;45978;53.646;55.930;2023-01-19T04:34:25;20.35;;;8.68;;
60100;SDS011;45978;53.646;55.930;2023-01-19T04:35:26;18.63;;;7.60;;
60100;SDS011;45978;53.646;55.930;2023-01-19T04:36:28;16.33;;;7.93;;
60100;SDS011;45978;53.646;55.930;2023-01-19T04:37:29;24.58;;;9.52;;
60100;SDS011;45978;53.646;55.930;2023-01-19T04:38:30;18.75;;;8.88;;
60100;SDS011;45978;53.646;55.930;2023-01-19T04:39:32;25.15;;;9.60;;
60100;SDS011;45978;53.646;55.930;2023-01-19T04:40:33;20.67;;;9.02;;
60100;SDS011;45978;53.646;55.930;2023-01-19T04:41:36;20.63;;;7.68;;
60100;SDS011;45978;53.646;55.930;2023-01-19T04:42:43;19.88;;;7.85;;
60100;SDS011;45978;53.646;55.930;2023-01-19T04:43:45;23.15;;;8.60;;
60100;SDS011;45978;53.646;55.930;2023-01-19T04:44:48;17.88;;;8.55;;
60100;SDS011;45978;53.646;55.930;2023-01-19T04:45:50;22.77;;;8.43;;
60100;SDS011;45978;53.646;55.930;2023-01-19T04:46:52;20.35;;;8.43;;
60100;SDS011;45978;53.646;55.930;2023-01-19T04:47:59;26.17;;;8.18;;
60100;SDS011;45978;53.646;55.930;2023-01-19T04:49:01;20.63;;;8.52;;
60100;SDS011;45978;53.646;55.930;2023-01-19T04:50:07;24.08;;;8.25;;
60100;SDS011;45978;53.646;55.930;2023-01-19T04:51:11;19.33;;;8.07;;
60100;SDS011;45978;53.646;55.930;2023-01-19T04:52:12;24.35;;;8.02;;
60100;SDS011;45978;53.646;55.930;2023-01-19T04:53:14;16.00;;;7.78;;
60100;SDS011;45978;53.646;55.930;2023-01-19T04:54:19;15.18;;;7.38;;
60100;SDS011;45978;53.646;55.930;2023-01-19T04:55:21;19.90;;;7.82;;
60100;SDS011;45978;53.646;55.930;2023-01-19T04:56:23;23.15;;;7.75;;
60100;SDS011;45978;53.646;55.930;2023-01-19T04:57:25;19.25;;;7.25;;
60100;SDS011;45978;53.646;55.930;2023-01-19T04:58:27;20.42;;;7.93;;
60100;SDS011;45978;53.646;55.930;2023-01-19T04:59:28;17.77;;;7.82;;
60100;SDS011;45978;53.646;55.930;2023-01-19T05:00:29;22.80;;;7.95;;
60100;SDS011;45978;53.646;55.930;2023-01-19T05:01:31;19.92;;;7.45;;
60100;SDS011;45978;53.646;55.930;2023-01-19T05:02:33;16.90;;;8.15;;
60100;SDS011;45978;53.646;55.930;2023-01-19T05:03:43;23.65;;;7.82;;
60100;SDS011;45978;53.646;55.930;2023-01-19T05:04:49;14.98;;;7.55;;
60100;SDS011;45978;53.646;55.930;2023-01-19T05:05:52;11.82;;;6.15;;
60100;SDS011;45978;53.646;55.930;2023-01-19T05:06:53;19.40;;;7.18;;
60100;SDS011;45978;53.646;55.930;2023-01-19T05:07:56;13.82;;;7.03;;
60100;SDS011;45978;53.646;55.930;2023-01-19T05:08:59;17.77;;;6.88;;
60100;SDS011;45978;53.646;55.930;2023-01-19T05:10:01;14.85;;;6.80;;
60100;SDS011;45978;53.646;55.930;2023-01-19T05:11:05;12.70;;;5.97;;
60100;SDS011;45978;53.646;55.930;2023-01-19T05:12:12;15.57;;;6.68;;
60100;SDS011;45978;53.646;55.930;2023-01-19T05:13:15;15.48;;;7.20;;
60100;SDS011;45978;53.646;55.930;2023-01-19T05:14:24;17.50;;;6.72;;
60100;SDS011;45978;53.646;55.930;2023-01-19T05:15:37;15.63;;;6.95;;
60100;SDS011;45978;53.646;55.930;2023-01-19T05:16:45;12.02;;;6.40;;
60100;SDS011;45978;53.646;55.930;2023-01-19T05:17:48;15.75;;;6.80;;
60100;SDS011;45978;53.646;55.930;2023-01-19T05:19:11;12.60;;;6.43;;
60100;SDS011;45978;53.646;55.930;2023-01-19T05:20:12;13.25;;;6.22;;
60100;SDS011;45978;53.646;55.930;2023-01-19T05:21:15;16.05;;;6.57;;
60100;SDS011;45978;53.646;55.930;2023-01-19T05:22:18;17.13;;;6.22;;
60100;SDS011;45978;53.646;55.930;2023-01-19T05:23:19;11.63;;;5.90;;
60100;SDS011;45978;53.646;55.930;2023-01-19T05:24:20;20.48;;;6.22;;
60100;SDS011;45978;53.646;55.930;2023-01-19T05:25:22;15.40;;;7.03;;
60100;SDS011;45978;53.646;55.930;2023-01-19T05:26:27;15.90;;;5.75;;
60100;SDS011;45978;53.646;55.930;2023-01-19T05:27:30;18.10;;;6.30;;
60100;SDS011;45978;53.646;55.930;2023-01-19T05:28:32;18.38;;;6.65;;
60100;SDS011;45978;53.646;55.930;2023-01-19T05:29:34;16.42;;;7.15;;
60100;SDS011;45978;53.646;55.930;2023-01-19T05:30:39;16.52;;;9.10;;
60100;SDS011;45978;53.646;55.930;2023-01-19T05:31:43;13.38;;;7.15;;
60100;SDS011;45978;53.646;55.930;2023-01-19T05:32:44;23.77;;;7.57;;
60100;SDS011;45978;53.646;55.930;2023-01-19T05:33:49;26.45;;;7.65;;
60100;SDS011;45978;53.646;55.930;2023-01-19T05:34:50;14.93;;;6.78;;
60100;SDS011;45978;53.646;55.930;2023-01-19T05:35:53;20.85;;;7.05;;
60100;SDS011;45978;53.646;55.930;2023-01-19T05:36:55;12.05;;;6.43;;
60100;SDS011;45978;53.646;55.930;2023-01-19T05:37:57;15.38;;;7.03;;
60100;SDS011;45978;53.646;55.930;2023-01-19T05:39:03;13.15;;;5.53;;
60100;SDS011;45978;53.646;55.930;2023-01-19T05:40:18;13.40;;;5.78;;
60100;SDS011;45978;53.646;55.930;2023-01-19T05:41:22;15.30;;;6.72;;
60100;SDS011;45978;53.646;55.930;2023-01-19T05:42:23;17.27;;;7.50;;
60100;SDS011;45978;53.646;55.930;2023-01-19T05:43:25;17.38;;;7.60;;
60100;SDS011;45978;53.646;55.930;2023-01-19T05:44:28;15.40;;;7.35;;
60100;SDS011;45978;53.646;55.930;2023-01-19T05:45:34;21.35;;;8.18;;
60100;SDS011;45978;53.646;55.930;2023-01-19T05:46:36;14.73;;;7.32;;
60100;SDS011;45978;53.646;55.930;2023-01-19T05:47:39;15.13;;;7.43;;
60100;SDS011;45978;53.646;55.930;2023-01-19T05:48:41;25.92;;;7.63;;
60100;SDS011;45978;53.646;55.930;2023-01-19T05:49:43;15.80;;;7.18;;
60100;SDS011;45978;53.646;55.930;2023-01-19T05:50:45;14.35;;;8.02;;
60100;SDS011;45978;53.646;55.930;2023-01-19T05:51:53;16.20;;;7.90;;
60100;SDS011;45978;53.646;55.930;2023-01-19T05:52:56;17.17;;;7.93;;
60100;SDS011;45978;53.646;55.930;2023-01-19T05:54:00;16.05;;;8.30;;
60100;SDS011;45978;53.646;55.930;2023-01-19T05:55:03;22.88;;;9.00;;
60100;SDS011;45978;53.646;55.930;2023-01-19T05:56:09;16.90;;;7.90;;
60100;SDS011;45978;53.646;55.930;2023-01-19T05:57:11;15.55;;;8.13;;
60100;SDS011;45978;53.646;55.930;2023-01-19T05:58:14;17.00;;;7.15;;
60100;SDS011;45978;53.646;55.930;2023-01-19T05:59:17;12.80;;;7.57;;
60100;SDS011;45978;53.646;55.930;2023-01-19T06:00:44;15.40;;;8.38;;
60100;SDS011;45978;53.646;55.930;2023-01-19T06:01:45;19.75;;;7.97;;
60100;SDS011;45978;53.646;55.930;2023-01-19T06:02:53;22.10;;;7.80;;
60100;SDS011;45978;53.646;55.930;2023-01-19T06:03:54;23.27;;;8.23;;
60100;SDS011;45978;53.646;55.930;2023-01-19T06:04:56;15.57;;;7.18;;
60100;SDS011;45978;53.646;55.930;2023-01-19T06:06:03;21.33;;;8.52;;
60100;SDS011;45978;53.646;55.930;2023-01-19T06:07:11;20.23;;;8.20;;
60100;SDS011;45978;53.646;55.930;2023-01-19T06:08:31;16.92;;;7.57;;
60100;SDS011;45978;53.646;55.930;2023-01-19T06:09:36;14.07;;;7.72;;
60100;SDS011;45978;53.646;55.930;2023-01-19T06:10:46;14.70;;;8.02;;
60100;SDS011;45978;53.646;55.930;2023-01-19T06:11:48;17.35;;;7.95;;
60100;SDS011;45978;53.646;55.930;2023-01-19T06:12:51;18.35;;;9.10;;
60100;SDS011;45978;53.646;55.930;2023-01-19T06:13:54;19.90;;;8.68;;
60100;SDS011;45978;53.646;55.930;2023-01-19T06:16:19;17.55;;;9.40;;
60100;SDS011;45978;53.646;55.930;2023-01-19T06:17:22;19.60;;;10.80;;
60100;SDS011;45978;53.646;55.930;2023-01-19T06:18:23;22.17;;;11.07;;
60100;SDS011;45978;53.646;55.930;2023-01-19T06:19:31;25.50;;;12.15;;
60100;SDS011;45978;53.646;55.930;2023-01-19T06:20:35;24.60;;;13.02;;
60100;SDS011;45978;53.646;55.930;2023-01-19T06:21:40;34.20;;;15.32;;
60100;SDS011;45978;53.646;55.930;2023-01-19T06:22:55;39.67;;;16.65;;
60100;SDS011;45978;53.646;55.930;2023-01-19T06:23:57;27.50;;;15.80;;
60100;SDS011;45978;53.646;55.930;2023-01-19T06:25:00;28.98;;;14.73;;
60100;SDS011;45978;53.646;55.930;2023-01-19T06:26:06;26.83;;;14.45;;
60100;SDS011;45978;53.646;55.930;2023-01-19T06:27:08;29.13;;;12.10;;
60100;SDS011;45978;53.646;55.930;2023-01-19T06:28:10;21.83;;;9.55;;
60100;SDS011;45978;53.646;55.930;2023-01-19T06:29:13;13.32;;;7.90;;
60100;SDS011;45978;53.646;55.930;2023-01-19T06:30:19;16.92;;;7.50;;
60100;SDS011;45978;53.646;55.930;2023-01-19T06:31:24;14.30;;;8.32;;
60100;SDS011;45978;53.646;55.930;2023-01-19T06:32:27;28.27;;;9.15;;
60100;SDS011;45978;53.646;55.930;2023-01-19T06:33:32;12.30;;;7.72;;
60100;SDS011;45978;53.646;55.930;2023-01-19T06:34:34;16.85;;;8.43;;
60100;SDS011;45978;53.646;55.930;2023-01-19T06:35:36;19.63;;;8.77;;
60100;SDS011;45978;53.646;55.930;2023-01-19T06:36:38;13.48;;;8.73;;
60100;SDS011;45978;53.646;55.930;2023-01-19T06:37:41;24.67;;;10.45;;
60100;SDS011;45978;53.646;55.930;2023-01-19T06:39:07;18.70;;;8.90;;
60100;SDS011;45978;53.646;55.930;2023-01-19T06:40:21;16.27;;;8.20;;
60100;SDS011;45978;53.646;55.930;2023-01-19T06:41:23;18.83;;;9.00;;
60100;SDS011;45978;53.646;55.930;2023-01-19T06:42:25;20.05;;;10.23;;
60100;SDS011;45978;53.646;55.930;2023-01-19T06:43:30;17.98;;;9.05;;